sensor_id;sensor_type;location;lat;lon;timestamp;P1;durP1;ratioP1;P2;durP2;ratioP2
42094;SDS011;27753;55.724;37.612;2022-11-20T00:00:53;26.50;;;16.00;;
42094;SDS011;27753;55.724;37.612;2022-11-20T00:03:20;23.33;;;13.90;;
42094;SDS011;27753;55.724;37.612;2022-11-20T00:05:45;25.20;;;15.48;;
42094;SDS011;27753;55.724;37.612;2022-11-20T00:08:11;25.15;;;14.73;;
42094;SDS011;27753;55.724;37.612;2022-11-20T00:10:37;22.05;;;14.85;;
42094;SDS011;27753;55.724;37.612;2022-11-20T00:13:04;22.50;;;12.30;;
42094;SDS011;27753;55.724;37.612;2022-11-20T00:15:32;22.02;;;12.45;;
42094;SDS011;27753;55.724;37.612;2022-11-20T00:17:58;23.05;;;16.35;;
42094;SDS011;27753;55.724;37.612;2022-11-20T00:20:24;26.83;;;15.95;;
42094;SDS011;27753;55.724;37.612;2022-11-20T00:22:50;21.13;;;13.55;;
42094;SDS011;27753;55.724;37.612;2022-11-20T00:25:16;21.45;;;14.23;;
42094;SDS011;27753;55.724;37.612;2022-11-20T00:27:42;20.73;;;12.68;;
42094;SDS011;27753;55.724;37.612;2022-11-20T00:30:08;24.73;;;15.93;;
42094;SDS011;27753;55.724;37.612;2022-11-20T00:32:34;22.90;;;15.30;;
42094;SDS011;27753;55.724;37.612;2022-11-20T00:35:00;24.98;;;14.80;;
42094;SDS011;27753;55.724;37.612;2022-11-20T00:37:26;21.88;;;13.48;;
42094;SDS011;27753;55.724;37.612;2022-11-20T00:39:51;23.17;;;13.27;;
42094;SDS011;27753;55.724;37.612;2022-11-20T00:42:17;21.88;;;16.13;;
42094;SDS011;27753;55.724;37.612;2022-11-20T00:44:43;22.58;;;14.93;;
42094;SDS011;27753;55.724;37.612;2022-11-20T00:47:09;17.42;;;10.60;;
42094;SDS011;27753;55.724;37.612;2022-11-20T00:49:35;20.10;;;14.07;;
42094;SDS011;27753;55.724;37.612;2022-11-20T00:52:01;18.23;;;12.20;;
42094;SDS011;27753;55.724;37.612;2022-11-20T00:54:27;22.05;;;13.02;;
42094;SDS011;27753;55.724;37.612;2022-11-20T00:56:53;16.55;;;12.45;;
42094;SDS011;27753;55.724;37.612;2022-11-20T00:59:19;18.35;;;11.95;;
42094;SDS011;27753;55.724;37.612;2022-11-20T01:01:45;16.38;;;10.50;;
42094;SDS011;27753;55.724;37.612;2022-11-20T01:04:10;17.52;;;11.43;;
42094;SDS011;27753;55.724;37.612;2022-11-20T01:06:37;17.70;;;12.20;;
42094;SDS011;27753;55.724;37.612;2022-11-20T01:09:13;20.67;;;12.82;;
42094;SDS011;27753;55.724;37.612;2022-11-20T01:11:40;20.92;;;13.18;;
42094;SDS011;27753;55.724;37.612;2022-11-20T01:14:10;22.33;;;12.90;;
42094;SDS011;27753;55.724;37.612;2022-11-20T01:16:38;16.38;;;11.00;;
42094;SDS011;27753;55.724;37.612;2022-11-20T01:19:07;21.67;;;14.25;;
42094;SDS011;27753;55.724;37.612;2022-11-20T01:21:37;15.50;;;12.02;;
42094;SDS011;27753;55.724;37.612;2022-11-20T01:24:05;18.73;;;12.43;;
42094;SDS011;27753;55.724;37.612;2022-11-20T01:26:33;19.17;;;13.15;;
42094;SDS011;27753;55.724;37.612;2022-11-20T01:29:01;18.05;;;11.18;;
42094;SDS011;27753;55.724;37.612;2022-11-20T01:31:35;17.95;;;12.43;;
42094;SDS011;27753;55.724;37.612;2022-11-20T01:34:03;16.88;;;11.02;;
42094;SDS011;27753;55.724;37.612;2022-11-20T01:36:30;17.73;;;12.30;;
42094;SDS011;27753;55.724;37.612;2022-11-20T01:39:02;16.98;;;13.32;;
42094;SDS011;27753;55.724;37.612;2022-11-20T01:41:31;20.52;;;13.50;;
42094;SDS011;27753;55.724;37.612;2022-11-20T01:44:17;18.70;;;11.40;;
42094;SDS011;27753;55.724;37.612;2022-11-20T01:49:56;17.10;;;10.68;;
42094;SDS011;27753;55.724;37.612;2022-11-20T01:52:34;17.13;;;10.45;;
42094;SDS011;27753;55.724;37.612;2022-11-20T01:55:06;16.67;;;12.52;;
42094;SDS011;27753;55.724;37.612;2022-11-20T01:57:37;19.33;;;10.88;;
42094;SDS011;27753;55.724;37.612;2022-11-20T02:00:08;17.50;;;8.88;;
42094;SDS011;27753;55.724;37.612;2022-11-20T02:02:36;16.83;;;10.82;;
42094;SDS011;27753;55.724;37.612;2022-11-20T02:05:04;16.08;;;11.70;;
42094;SDS011;27753;55.724;37.612;2022-11-20T02:07:42;15.23;;;9.60;;
42094;SDS011;27753;55.724;37.612;2022-11-20T02:10:09;13.82;;;9.38;;
42094;SDS011;27753;55.724;37.612;2022-11-20T02:12:36;13.77;;;9.45;;
42094;SDS011;27753;55.724;37.612;2022-11-20T02:15:20;16.52;;;12.73;;
42094;SDS011;27753;55.724;37.612;2022-11-20T02:17:46;14.77;;;10.00;;
42094;SDS011;27753;55.724;37.612;2022-11-20T02:20:12;20.00;;;12.38;;
42094;SDS011;27753;55.724;37.612;2022-11-20T02:22:42;18.90;;;10.98;;
42094;SDS011;27753;55.724;37.612;2022-11-20T02:25:23;15.43;;;10.52;;
42094;SDS011;27753;55.724;37.612;2022-11-20T02:27:51;17.90;;;11.55;;
42094;SDS011;27753;55.724;37.612;2022-11-20T02:30:18;15.07;;;10.90;;
42094;SDS011;27753;55.724;37.612;2022-11-20T02:32:44;17.17;;;11.02;;
42094;SDS011;27753;55.724;37.612;2022-11-20T02:35:38;16.20;;;9.77;;
42094;SDS011;27753;55.724;37.612;2022-11-20T02:37:57;19.27;;;12.60;;
42094;SDS011;27753;55.724;37.612;2022-11-20T02:40:26;15.30;;;12.45;;
42094;SDS011;27753;55.724;37.612;2022-11-20T02:42:55;15.65;;;10.18;;
42094;SDS011;27753;55.724;37.612;2022-11-20T02:45:21;15.55;;;10.02;;
42094;SDS011;27753;55.724;37.612;2022-11-20T02:47:48;15.52;;;12.75;;
42094;SDS011;27753;55.724;37.612;2022-11-20T02:50:14;19.88;;;12.18;;
42094;SDS011;27753;55.724;37.612;2022-11-20T02:52:41;16.67;;;11.57;;
42094;SDS011;27753;55.724;37.612;2022-11-20T02:55:07;14.70;;;10.75;;
42094;SDS011;27753;55.724;37.612;2022-11-20T02:57:33;16.05;;;10.68;;
42094;SDS011;27753;55.724;37.612;2022-11-20T02:59:59;17.92;;;11.05;;
42094;SDS011;27753;55.724;37.612;2022-11-20T03:02:25;16.77;;;9.50;;
42094;SDS011;27753;55.724;37.612;2022-11-20T03:04:50;17.45;;;11.43;;
42094;SDS011;27753;55.724;37.612;2022-11-20T03:07:16;18.15;;;12.13;;
42094;SDS011;27753;55.724;37.612;2022-11-20T03:09:42;16.05;;;10.23;;
42094;SDS011;27753;55.724;37.612;2022-11-20T03:12:08;16.77;;;11.05;;
42094;SDS011;27753;55.724;37.612;2022-11-20T03:14:34;17.40;;;12.55;;
42094;SDS011;27753;55.724;37.612;2022-11-20T03:16:59;16.45;;;11.55;;
42094;SDS011;27753;55.724;37.612;2022-11-20T03:19:25;18.33;;;11.60;;
42094;SDS011;27753;55.724;37.612;2022-11-20T03:21:51;15.00;;;10.00;;
42094;SDS011;27753;55.724;37.612;2022-11-20T03:24:17;17.15;;;10.20;;
42094;SDS011;27753;55.724;37.612;2022-11-20T03:26:43;19.38;;;10.68;;
42094;SDS011;27753;55.724;37.612;2022-11-20T03:29:09;17.15;;;10.45;;
42094;SDS011;27753;55.724;37.612;2022-11-20T03:31:38;15.65;;;10.90;;
42094;SDS011;27753;55.724;37.612;2022-11-20T03:34:09;16.42;;;11.23;;
42094;SDS011;27753;55.724;37.612;2022-11-20T03:36:39;19.85;;;10.65;;
42094;SDS011;27753;55.724;37.612;2022-11-20T03:39:06;15.77;;;9.88;;
42094;SDS011;27753;55.724;37.612;2022-11-20T03:41:35;14.10;;;10.18;;
42094;SDS011;27753;55.724;37.612;2022-11-20T03:44:03;16.55;;;11.25;;
42094;SDS011;27753;55.724;37.612;2022-11-20T03:46:31;15.55;;;10.32;;
42094;SDS011;27753;55.724;37.612;2022-11-20T03:48:57;15.13;;;9.10;;
42094;SDS011;27753;55.724;37.612;2022-11-20T03:51:24;16.52;;;10.88;;
42094;SDS011;27753;55.724;37.612;2022-11-20T03:53:52;18.67;;;11.05;;
42094;SDS011;27753;55.724;37.612;2022-11-20T03:56:20;25.27;;;15.23;;
42094;SDS011;27753;55.724;37.612;2022-11-20T03:58:49;20.60;;;13.20;;
42094;SDS011;27753;55.724;37.612;2022-11-20T04:01:16;18.35;;;12.55;;
42094;SDS011;27753;55.724;37.612;2022-11-20T04:03:43;15.90;;;11.88;;
42094;SDS011;27753;55.724;37.612;2022-11-20T04:06:20;17.25;;;11.57;;
42094;SDS011;27753;55.724;37.612;2022-11-20T04:08:48;16.27;;;8.75;;
42094;SDS011;27753;55.724;37.612;2022-11-20T04:11:16;17.08;;;9.77;;
42094;SDS011;27753;55.724;37.612;2022-11-20T04:13:47;13.30;;;8.32;;
42094;SDS011;27753;55.724;37.612;2022-11-20T04:16:14;19.10;;;10.27;;
42094;SDS011;27753;55.724;37.612;2022-11-20T04:18:41;17.50;;;9.80;;
42094;SDS011;27753;55.724;37.612;2022-11-20T04:21:07;17.27;;;11.68;;
42094;SDS011;27753;55.724;37.612;2022-11-20T04:23:33;21.70;;;12.88;;
42094;SDS011;27753;55.724;37.612;2022-11-20T04:26:02;23.95;;;12.43;;
42094;SDS011;27753;55.724;37.612;2022-11-20T04:28:36;16.50;;;11.88;;
42094;SDS011;27753;55.724;37.612;2022-11-20T04:31:11;20.08;;;12.70;;
42094;SDS011;27753;55.724;37.612;2022-11-20T04:33:39;20.15;;;12.50;;
42094;SDS011;27753;55.724;37.612;2022-11-20T04:36:07;17.83;;;12.00;;
42094;SDS011;27753;55.724;37.612;2022-11-20T04:38:37;20.08;;;11.38;;
42094;SDS011;27753;55.724;37.612;2022-11-20T04:41:04;18.58;;;12.38;;
42094;SDS011;27753;55.724;37.612;2022-11-20T04:43:32;19.55;;;13.73;;
42094;SDS011;27753;55.724;37.612;2022-11-20T04:45:58;15.43;;;10.68;;
42094;SDS011;27753;55.724;37.612;2022-11-20T04:48:25;17.60;;;11.68;;
42094;SDS011;27753;55.724;37.612;2022-11-20T04:50:52;18.23;;;11.80;;
42094;SDS011;27753;55.724;37.612;2022-11-20T04:53:19;16.60;;;9.17;;
42094;SDS011;27753;55.724;37.612;2022-11-20T04:55:45;18.50;;;12.45;;
42094;SDS011;27753;55.724;37.612;2022-11-20T04:58:12;20.35;;;12.27;;
42094;SDS011;27753;55.724;37.612;2022-11-20T05:00:38;17.03;;;11.80;;
42094;SDS011;27753;55.724;37.612;2022-11-20T05:03:04;22.77;;;14.70;;
42094;SDS011;27753;55.724;37.612;2022-11-20T05:05:30;22.92;;;14.35;;
42094;SDS011;27753;55.724;37.612;2022-11-20T05:07:57;18.30;;;11.68;;
42094;SDS011;27753;55.724;37.612;2022-11-20T05:10:25;20.27;;;13.38;;
42094;SDS011;27753;55.724;37.612;2022-11-20T05:12:51;20.43;;;12.27;;
42094;SDS011;27753;55.724;37.612;2022-11-20T05:15:17;28.98;;;11.32;;
42094;SDS011;27753;55.724;37.612;2022-11-20T05:17:47;16.40;;;10.75;;
42094;SDS011;27753;55.724;37.612;2022-11-20T05:20:14;26.65;;;13.68;;
42094;SDS011;27753;55.724;37.612;2022-11-20T05:22:40;15.15;;;9.57;;
42094;SDS011;27753;55.724;37.612;2022-11-20T05:25:06;19.05;;;11.82;;
42094;SDS011;27753;55.724;37.612;2022-11-20T05:29:59;19.50;;;11.07;;
42094;SDS011;27753;55.724;37.612;2022-11-20T05:32:25;13.80;;;10.20;;
42094;SDS011;27753;55.724;37.612;2022-11-20T05:34:51;17.63;;;12.65;;
42094;SDS011;27753;55.724;37.612;2022-11-20T05:37:17;17.65;;;12.63;;
42094;SDS011;27753;55.724;37.612;2022-11-20T05:39:50;18.27;;;11.68;;
42094;SDS011;27753;55.724;37.612;2022-11-20T05:42:16;17.83;;;11.60;;
42094;SDS011;27753;55.724;37.612;2022-11-20T05:44:58;22.45;;;12.63;;
42094;SDS011;27753;55.724;37.612;2022-11-20T05:49:51;21.83;;;12.40;;
42094;SDS011;27753;55.724;37.612;2022-11-20T05:52:17;17.48;;;11.93;;
42094;SDS011;27753;55.724;37.612;2022-11-20T05:54:43;22.10;;;13.20;;
42094;SDS011;27753;55.724;37.612;2022-11-20T05:57:09;20.05;;;12.02;;
42094;SDS011;27753;55.724;37.612;2022-11-20T05:59:35;17.15;;;11.25;;
42094;SDS011;27753;55.724;37.612;2022-11-20T06:02:02;20.02;;;12.57;;
42094;SDS011;27753;55.724;37.612;2022-11-20T06:04:28;22.88;;;12.63;;
42094;SDS011;27753;55.724;37.612;2022-11-20T06:06:53;16.48;;;12.02;;
42094;SDS011;27753;55.724;37.612;2022-11-20T06:09:19;19.52;;;11.63;;
42094;SDS011;27753;55.724;37.612;2022-11-20T06:11:45;17.08;;;11.68;;
42094;SDS011;27753;55.724;37.612;2022-11-20T06:14:11;21.05;;;13.57;;
42094;SDS011;27753;55.724;37.612;2022-11-20T06:16:37;23.08;;;14.20;;
42094;SDS011;27753;55.724;37.612;2022-11-20T06:19:02;17.33;;;12.35;;
42094;SDS011;27753;55.724;37.612;2022-11-20T06:21:28;21.25;;;13.35;;
42094;SDS011;27753;55.724;37.612;2022-11-20T06:23:54;26.75;;;14.63;;
42094;SDS011;27753;55.724;37.612;2022-11-20T06:26:21;20.48;;;13.85;;
42094;SDS011;27753;55.724;37.612;2022-11-20T06:28:48;20.48;;;13.30;;
42094;SDS011;27753;55.724;37.612;2022-11-20T06:31:16;21.33;;;13.97;;
42094;SDS011;27753;55.724;37.612;2022-11-20T06:33:43;26.38;;;14.10;;
42094;SDS011;27753;55.724;37.612;2022-11-20T06:36:11;25.25;;;13.20;;
42094;SDS011;27753;55.724;37.612;2022-11-20T06:38:39;24.05;;;14.15;;
42094;SDS011;27753;55.724;37.612;2022-11-20T06:41:06;20.53;;;13.10;;
42094;SDS011;27753;55.724;37.612;2022-11-20T06:43:32;20.25;;;13.25;;
42094;SDS011;27753;55.724;37.612;2022-11-20T06:45:58;19.67;;;13.63;;
42094;SDS011;27753;55.724;37.612;2022-11-20T06:48:25;23.13;;;14.20;;
42094;SDS011;27753;55.724;37.612;2022-11-20T06:50:52;23.48;;;14.23;;
42094;SDS011;27753;55.724;37.612;2022-11-20T06:53:18;26.20;;;14.43;;
42094;SDS011;27753;55.724;37.612;2022-11-20T06:55:45;24.98;;;15.48;;
42094;SDS011;27753;55.724;37.612;2022-11-20T06:58:14;25.15;;;15.10;;
42094;SDS011;27753;55.724;37.612;2022-11-20T07:00:40;22.63;;;14.32;;
42094;SDS011;27753;55.724;37.612;2022-11-20T07:03:07;24.65;;;14.73;;
42094;SDS011;27753;55.724;37.612;2022-11-20T07:05:37;26.70;;;16.05;;
42094;SDS011;27753;55.724;37.612;2022-11-20T07:08:03;23.63;;;15.52;;
42094;SDS011;27753;55.724;37.612;2022-11-20T07:10:30;26.85;;;17.90;;
42094;SDS011;27753;55.724;37.612;2022-11-20T07:12:56;26.40;;;15.25;;
42094;SDS011;27753;55.724;37.612;2022-11-20T07:15:22;22.52;;;14.35;;
42094;SDS011;27753;55.724;37.612;2022-11-20T07:20:15;24.60;;;15.65;;
42094;SDS011;27753;55.724;37.612;2022-11-20T07:22:41;28.63;;;16.63;;
42094;SDS011;27753;55.724;37.612;2022-11-20T07:25:08;26.65;;;15.82;;
42094;SDS011;27753;55.724;37.612;2022-11-20T07:27:40;28.85;;;15.85;;
42094;SDS011;27753;55.724;37.612;2022-11-20T07:30:06;21.42;;;15.43;;
42094;SDS011;27753;55.724;37.612;2022-11-20T07:32:32;26.98;;;15.93;;
42094;SDS011;27753;55.724;37.612;2022-11-20T07:34:58;33.33;;;16.92;;
42094;SDS011;27753;55.724;37.612;2022-11-20T07:37:24;31.48;;;16.52;;
42094;SDS011;27753;55.724;37.612;2022-11-20T07:39:49;23.27;;;15.38;;
42094;SDS011;27753;55.724;37.612;2022-11-20T07:42:15;23.00;;;14.23;;
42094;SDS011;27753;55.724;37.612;2022-11-20T07:44:41;24.25;;;15.05;;
42094;SDS011;27753;55.724;37.612;2022-11-20T07:47:07;21.30;;;14.13;;
42094;SDS011;27753;55.724;37.612;2022-11-20T07:49:36;28.50;;;16.63;;
42094;SDS011;27753;55.724;37.612;2022-11-20T07:52:02;25.70;;;14.88;;
42094;SDS011;27753;55.724;37.612;2022-11-20T07:54:28;25.23;;;14.75;;
42094;SDS011;27753;55.724;37.612;2022-11-20T07:56:56;24.23;;;13.68;;
42094;SDS011;27753;55.724;37.612;2022-11-20T07:59:22;26.85;;;16.73;;
42094;SDS011;27753;55.724;37.612;2022-11-20T08:01:47;23.77;;;15.38;;
42094;SDS011;27753;55.724;37.612;2022-11-20T08:04:16;26.45;;;16.17;;
42094;SDS011;27753;55.724;37.612;2022-11-20T08:06:42;26.55;;;16.52;;
42094;SDS011;27753;55.724;37.612;2022-11-20T08:09:08;27.08;;;16.85;;
42094;SDS011;27753;55.724;37.612;2022-11-20T08:11:34;29.90;;;17.17;;
42094;SDS011;27753;55.724;37.612;2022-11-20T08:14:18;25.88;;;15.48;;
42094;SDS011;27753;55.724;37.612;2022-11-20T08:16:45;26.10;;;16.80;;
42094;SDS011;27753;55.724;37.612;2022-11-20T08:21:39;30.15;;;16.95;;
42094;SDS011;27753;55.724;37.612;2022-11-20T08:24:06;31.13;;;16.98;;
42094;SDS011;27753;55.724;37.612;2022-11-20T08:26:32;31.45;;;19.48;;
42094;SDS011;27753;55.724;37.612;2022-11-20T08:28:58;27.63;;;16.67;;
42094;SDS011;27753;55.724;37.612;2022-11-20T08:31:25;30.25;;;18.20;;
42094;SDS011;27753;55.724;37.612;2022-11-20T08:33:52;34.47;;;18.63;;
42094;SDS011;27753;55.724;37.612;2022-11-20T08:36:19;28.38;;;19.17;;
42094;SDS011;27753;55.724;37.612;2022-11-20T08:38:52;25.50;;;16.30;;
42094;SDS011;27753;55.724;37.612;2022-11-20T08:41:19;27.08;;;16.52;;
42094;SDS011;27753;55.724;37.612;2022-11-20T08:43:57;29.05;;;17.35;;
42094;SDS011;27753;55.724;37.612;2022-11-20T08:46:37;29.38;;;16.85;;
42094;SDS011;27753;55.724;37.612;2022-11-20T08:49:14;27.98;;;16.08;;
42094;SDS011;27753;55.724;37.612;2022-11-20T08:51:40;27.80;;;19.27;;
42094;SDS011;27753;55.724;37.612;2022-11-20T08:54:07;30.60;;;17.63;;
42094;SDS011;27753;55.724;37.612;2022-11-20T08:56:33;31.35;;;18.23;;
42094;SDS011;27753;55.724;37.612;2022-11-20T08:59:00;31.65;;;19.42;;
42094;SDS011;27753;55.724;37.612;2022-11-20T09:01:26;36.50;;;20.30;;
42094;SDS011;27753;55.724;37.612;2022-11-20T09:03:54;27.92;;;16.40;;
42094;SDS011;27753;55.724;37.612;2022-11-20T09:06:24;32.72;;;18.75;;
42094;SDS011;27753;55.724;37.612;2022-11-20T09:09:00;29.70;;;18.55;;
42094;SDS011;27753;55.724;37.612;2022-11-20T09:11:48;30.58;;;20.92;;
42094;SDS011;27753;55.724;37.612;2022-11-20T09:14:15;34.28;;;18.20;;
42094;SDS011;27753;55.724;37.612;2022-11-20T09:16:41;38.47;;;20.50;;
42094;SDS011;27753;55.724;37.612;2022-11-20T09:19:06;37.50;;;22.15;;
42094;SDS011;27753;55.724;37.612;2022-11-20T09:21:32;31.00;;;19.27;;
42094;SDS011;27753;55.724;37.612;2022-11-20T09:24:21;34.08;;;19.27;;
42094;SDS011;27753;55.724;37.612;2022-11-20T09:26:56;37.88;;;21.73;;
42094;SDS011;27753;55.724;37.612;2022-11-20T09:29:22;49.05;;;24.25;;
42094;SDS011;27753;55.724;37.612;2022-11-20T09:31:48;34.80;;;20.05;;
42094;SDS011;27753;55.724;37.612;2022-11-20T09:34:14;37.22;;;19.52;;
42094;SDS011;27753;55.724;37.612;2022-11-20T09:36:39;33.63;;;20.15;;
42094;SDS011;27753;55.724;37.612;2022-11-20T09:39:05;34.05;;;20.27;;
42094;SDS011;27753;55.724;37.612;2022-11-20T09:41:35;35.03;;;22.20;;
42094;SDS011;27753;55.724;37.612;2022-11-20T09:55:23;29.95;;;18.35;;
42094;SDS011;27753;55.724;37.612;2022-11-20T09:57:50;42.00;;;21.75;;
42094;SDS011;27753;55.724;37.612;2022-11-20T10:00:17;37.92;;;19.88;;
42094;SDS011;27753;55.724;37.612;2022-11-20T10:05:55;35.97;;;20.25;;
42094;SDS011;27753;55.724;37.612;2022-11-20T10:08:39;40.35;;;22.20;;
42094;SDS011;27753;55.724;37.612;2022-11-20T10:11:26;39.40;;;21.27;;
42094;SDS011;27753;55.724;37.612;2022-11-20T10:25:39;45.95;;;22.55;;
42094;SDS011;27753;55.724;37.612;2022-11-20T10:31:11;41.45;;;21.70;;
42094;SDS011;27753;55.724;37.612;2022-11-20T10:33:45;36.70;;;20.42;;
42094;SDS011;27753;55.724;37.612;2022-11-20T10:36:18;38.05;;;20.40;;
42094;SDS011;27753;55.724;37.612;2022-11-20T10:38:58;41.05;;;19.50;;
42094;SDS011;27753;55.724;37.612;2022-11-20T10:41:32;42.97;;;22.38;;
42094;SDS011;27753;55.724;37.612;2022-11-20T10:44:09;35.78;;;20.55;;
42094;SDS011;27753;55.724;37.612;2022-11-20T10:46:45;35.00;;;20.85;;
42094;SDS011;27753;55.724;37.612;2022-11-20T10:49:14;32.05;;;18.50;;
42094;SDS011;27753;55.724;37.612;2022-11-20T10:54:40;40.17;;;22.83;;
42094;SDS011;27753;55.724;37.612;2022-11-20T10:57:31;29.60;;;17.60;;
42094;SDS011;27753;55.724;37.612;2022-11-20T11:00:21;29.98;;;18.08;;
42094;SDS011;27753;55.724;37.612;2022-11-20T11:02:48;34.25;;;18.98;;
42094;SDS011;27753;55.724;37.612;2022-11-20T11:07:59;37.15;;;19.67;;
42094;SDS011;27753;55.724;37.612;2022-11-20T11:16:04;29.75;;;15.60;;
42094;SDS011;27753;55.724;37.612;2022-11-20T11:18:31;28.30;;;17.85;;
42094;SDS011;27753;55.724;37.612;2022-11-20T11:21:03;27.98;;;14.35;;
42094;SDS011;27753;55.724;37.612;2022-11-20T11:26:04;25.80;;;17.33;;
42094;SDS011;27753;55.724;37.612;2022-11-20T11:29:00;26.45;;;14.32;;
42094;SDS011;27753;55.724;37.612;2022-11-20T11:31:30;24.50;;;15.43;;
42094;SDS011;27753;55.724;37.612;2022-11-20T11:34:07;29.40;;;18.25;;
42094;SDS011;27753;55.724;37.612;2022-11-20T11:36:40;30.58;;;18.67;;
42094;SDS011;27753;55.724;37.612;2022-11-20T11:39:10;31.58;;;18.13;;
42094;SDS011;27753;55.724;37.612;2022-11-20T11:41:39;27.98;;;17.35;;
42094;SDS011;27753;55.724;37.612;2022-11-20T11:44:16;22.40;;;13.65;;
42094;SDS011;27753;55.724;37.612;2022-11-20T11:47:03;28.60;;;14.40;;
42094;SDS011;27753;55.724;37.612;2022-11-20T11:49:33;20.55;;;12.20;;
42094;SDS011;27753;55.724;37.612;2022-11-20T11:54:56;31.20;;;14.38;;
42094;SDS011;27753;55.724;37.612;2022-11-20T11:57:29;17.58;;;12.10;;
42094;SDS011;27753;55.724;37.612;2022-11-20T12:00:17;19.30;;;12.75;;
42094;SDS011;27753;55.724;37.612;2022-11-20T12:05:21;23.00;;;13.52;;
42094;SDS011;27753;55.724;37.612;2022-11-20T12:10:45;20.50;;;11.80;;
42094;SDS011;27753;55.724;37.612;2022-11-20T12:15:59;18.45;;;11.27;;
42094;SDS011;27753;55.724;37.612;2022-11-20T12:18:29;20.73;;;12.50;;
42094;SDS011;27753;55.724;37.612;2022-11-20T12:21:02;18.92;;;12.05;;
42094;SDS011;27753;55.724;37.612;2022-11-20T12:41:05;20.17;;;11.98;;
42094;SDS011;27753;55.724;37.612;2022-11-20T12:43:47;22.38;;;12.90;;
42094;SDS011;27753;55.724;37.612;2022-11-20T12:46:56;18.83;;;11.60;;
42094;SDS011;27753;55.724;37.612;2022-11-20T13:00:23;22.27;;;13.20;;
42094;SDS011;27753;55.724;37.612;2022-11-20T13:08:00;17.05;;;10.88;;
42094;SDS011;27753;55.724;37.612;2022-11-20T13:13:17;19.85;;;13.27;;
42094;SDS011;27753;55.724;37.612;2022-11-20T13:16:10;20.17;;;12.13;;
42094;SDS011;27753;55.724;37.612;2022-11-20T13:18:41;17.42;;;11.07;;
42094;SDS011;27753;55.724;37.612;2022-11-20T13:21:15;23.05;;;12.38;;
42094;SDS011;27753;55.724;37.612;2022-11-20T13:23:43;24.15;;;14.30;;
42094;SDS011;27753;55.724;37.612;2022-11-20T13:26:22;20.23;;;12.23;;
42094;SDS011;27753;55.724;37.612;2022-11-20T13:31:42;17.83;;;10.93;;
42094;SDS011;27753;55.724;37.612;2022-11-20T13:34:12;23.58;;;12.65;;
42094;SDS011;27753;55.724;37.612;2022-11-20T13:36:59;20.65;;;11.93;;
42094;SDS011;27753;55.724;37.612;2022-11-20T13:39:34;18.02;;;12.90;;
42094;SDS011;27753;55.724;37.612;2022-11-20T13:42:03;27.33;;;12.88;;
42094;SDS011;27753;55.724;37.612;2022-11-20T13:44:54;22.40;;;13.18;;
42094;SDS011;27753;55.724;37.612;2022-11-20T13:47:21;20.45;;;13.35;;
42094;SDS011;27753;55.724;37.612;2022-11-20T13:49:49;23.60;;;14.27;;
42094;SDS011;27753;55.724;37.612;2022-11-20T13:52:34;19.88;;;12.82;;
42094;SDS011;27753;55.724;37.612;2022-11-20T14:00:31;20.38;;;14.35;;
42094;SDS011;27753;55.724;37.612;2022-11-20T14:05:35;20.17;;;13.75;;
42094;SDS011;27753;55.724;37.612;2022-11-20T14:08:05;22.70;;;14.73;;
42094;SDS011;27753;55.724;37.612;2022-11-20T14:10:38;22.70;;;13.25;;
42094;SDS011;27753;55.724;37.612;2022-11-20T14:13:12;19.33;;;13.68;;
42094;SDS011;27753;55.724;37.612;2022-11-20T14:15:45;19.08;;;13.30;;
42094;SDS011;27753;55.724;37.612;2022-11-20T14:18:15;22.90;;;12.95;;
42094;SDS011;27753;55.724;37.612;2022-11-20T14:20:46;19.27;;;12.30;;
42094;SDS011;27753;55.724;37.612;2022-11-20T14:23:22;21.02;;;13.50;;
42094;SDS011;27753;55.724;37.612;2022-11-20T14:25:50;20.63;;;13.30;;
42094;SDS011;27753;55.724;37.612;2022-11-20T14:28:19;20.92;;;13.32;;
42094;SDS011;27753;55.724;37.612;2022-11-20T14:30:56;22.25;;;14.05;;
42094;SDS011;27753;55.724;37.612;2022-11-20T14:33:23;24.00;;;14.27;;
42094;SDS011;27753;55.724;37.612;2022-11-20T14:35:52;20.33;;;13.85;;
42094;SDS011;27753;55.724;37.612;2022-11-20T14:38:25;22.70;;;15.02;;
42094;SDS011;27753;55.724;37.612;2022-11-20T14:40:53;22.30;;;14.40;;
42094;SDS011;27753;55.724;37.612;2022-11-20T14:43:25;22.13;;;14.68;;
42094;SDS011;27753;55.724;37.612;2022-11-20T14:46:02;24.85;;;16.20;;
42094;SDS011;27753;55.724;37.612;2022-11-20T14:48:46;23.50;;;13.93;;
42094;SDS011;27753;55.724;37.612;2022-11-20T14:56:36;21.85;;;14.77;;
42094;SDS011;27753;55.724;37.612;2022-11-20T14:59:02;28.85;;;14.93;;
42094;SDS011;27753;55.724;37.612;2022-11-20T15:01:29;22.40;;;14.10;;
42094;SDS011;27753;55.724;37.612;2022-11-20T15:04:00;23.85;;;15.38;;
42094;SDS011;27753;55.724;37.612;2022-11-20T15:06:26;26.58;;;16.08;;
42094;SDS011;27753;55.724;37.612;2022-11-20T15:08:52;21.45;;;13.88;;
42094;SDS011;27753;55.724;37.612;2022-11-20T15:11:19;20.42;;;15.02;;
42094;SDS011;27753;55.724;37.612;2022-11-20T15:13:49;24.27;;;15.63;;
42094;SDS011;27753;55.724;37.612;2022-11-20T15:16:17;19.95;;;14.30;;
42094;SDS011;27753;55.724;37.612;2022-11-20T15:18:45;24.33;;;14.32;;
42094;SDS011;27753;55.724;37.612;2022-11-20T15:21:15;20.33;;;13.95;;
42094;SDS011;27753;55.724;37.612;2022-11-20T15:23:42;21.88;;;14.27;;
42094;SDS011;27753;55.724;37.612;2022-11-20T15:26:09;20.60;;;14.07;;
42094;SDS011;27753;55.724;37.612;2022-11-20T15:31:04;18.98;;;12.70;;
42094;SDS011;27753;55.724;37.612;2022-11-20T15:33:31;20.55;;;13.05;;
42094;SDS011;27753;55.724;37.612;2022-11-20T15:35:58;21.35;;;15.23;;
42094;SDS011;27753;55.724;37.612;2022-11-20T15:38:24;18.60;;;11.93;;
42094;SDS011;27753;55.724;37.612;2022-11-20T15:40:50;21.27;;;12.40;;
42094;SDS011;27753;55.724;37.612;2022-11-20T15:43:16;21.83;;;12.52;;
42094;SDS011;27753;55.724;37.612;2022-11-20T15:48:21;19.90;;;12.02;;
42094;SDS011;27753;55.724;37.612;2022-11-20T15:53:25;24.35;;;12.70;;
42094;SDS011;27753;55.724;37.612;2022-11-20T15:55:51;22.08;;;14.02;;
42094;SDS011;27753;55.724;37.612;2022-11-20T15:58:17;22.25;;;14.38;;
42094;SDS011;27753;55.724;37.612;2022-11-20T16:00:43;22.10;;;13.10;;
42094;SDS011;27753;55.724;37.612;2022-11-20T16:03:13;20.63;;;14.60;;
42094;SDS011;27753;55.724;37.612;2022-11-20T16:05:40;26.20;;;15.45;;
42094;SDS011;27753;55.724;37.612;2022-11-20T16:08:06;24.65;;;15.45;;
42094;SDS011;27753;55.724;37.612;2022-11-20T16:10:32;27.67;;;14.73;;
42094;SDS011;27753;55.724;37.612;2022-11-20T16:12:58;26.35;;;15.35;;
42094;SDS011;27753;55.724;37.612;2022-11-20T16:15:42;24.33;;;16.55;;
42094;SDS011;27753;55.724;37.612;2022-11-20T16:18:16;25.50;;;15.27;;
42094;SDS011;27753;55.724;37.612;2022-11-20T16:20:44;29.05;;;15.18;;
42094;SDS011;27753;55.724;37.612;2022-11-20T16:23:11;25.02;;;14.70;;
42094;SDS011;27753;55.724;37.612;2022-11-20T16:25:37;23.98;;;13.25;;
42094;SDS011;27753;55.724;37.612;2022-11-20T16:28:03;21.58;;;14.30;;